Time;durP1;ratioP1;P1;durP2;ratioP2;P2;SDS_P1;SDS_P2;PMS_P1;PMS_P2;Temp;Humidity;BMP_temperature;BMP_pressure;BME280_temperature;BME280_humidity;BME280_pressure;Samples;Min_cycle;Max_cycle;Signal;HPM_P1;HPM_P2
2021/04/11 00:00:38;;;;;;;19.45;12.30;;;;;;;6.72;47.06;100722.11;1787904;80;21063;-64
2021/04/11 00:03:08;;;;;;;21.10;13.72;;;;;;;6.72;46.80;100716.76;1787917;80;21095;-61
2021/04/11 00:05:40;;;;;;;26.25;14.47;;;;;;;6.70;46.97;100715.33;1788625;79;21037;-60
2021/04/11 00:08:10;;;;;;;24.85;15.45;;;;;;;6.71;46.96;100719.14;1788056;80;21702;-61
2021/04/11 00:10:41;;;;;;;22.02;14.65;;;;;;;6.72;46.98;100725.28;1784507;80;21170;-61
2021/04/11 00:13:13;;;;;;;23.02;13.90;;;;;;;6.70;46.95;100724.17;1784563;80;21103;-63
2021/04/11 00:15:41;;;;;;;22.98;13.72;;;;;;;6.68;47.17;100727.55;1785400;80;21127;-63
2021/04/11 00:18:09;;;;;;;19.82;11.63;;;;;;;6.65;47.18;100733.30;1786948;80;21970;-64
2021/04/11 00:20:36;;;;;;;24.50;14.35;;;;;;;6.66;47.16;100727.44;1784658;80;21028;-63
2021/04/11 00:23:04;;;;;;;14.28;11.65;;;;;;;6.65;47.16;100729.29;1784581;80;21189;-61
2021/04/11 00:25:35;;;;;;;19.73;13.70;;;;;;;6.65;47.14;100731.96;1784831;80;21231;-63
2021/04/11 00:28:02;;;;;;;22.85;14.90;;;;;;;6.63;47.11;100735.84;1787029;80;21158;-63
2021/04/11 00:30:30;;;;;;;23.77;13.38;;;;;;;6.60;47.23;100733.06;1784512;80;21376;-61
2021/04/11 00:33:00;;;;;;;20.85;14.10;;;;;;;6.60;47.28;100730.39;1786610;80;21630;-62
2021/04/11 00:35:28;;;;;;;25.10;14.75;;;;;;;6.58;47.37;100729.75;1787962;80;21134;-61
2021/04/11 00:37:57;;;;;;;21.10;13.60;;;;;;;6.52;47.62;100730.03;1791781;80;21166;-61
2021/04/11 00:40:36;;;;;;;15.32;11.03;;;;;;;6.50;47.50;100733.94;1782772;80;21121;-59
2021/04/11 00:43:12;;;;;;;16.40;12.60;;;;;;;6.50;47.19;100730.76;1756829;81;22145;-59
2021/04/11 00:45:48;;;;;;;15.75;11.65;;;;;;;6.54;46.87;100733.84;1760882;80;21126;-59
2021/04/11 00:48:17;;;;;;;16.95;11.20;;;;;;;6.58;46.74;100735.09;1791121;80;21067;-63
2021/04/11 00:50:58;;;;;;;17.17;11.63;;;;;;;6.61;46.67;100738.73;1762267;79;21113;-61
2021/04/11 00:53:26;;;;;;;18.23;12.70;;;;;;;6.64;46.52;100736.98;1801708;79;21173;-62
2021/04/11 00:55:55;;;;;;;21.33;12.23;;;;;;;6.67;46.39;100738.42;1798035;79;21207;-61
2021/04/11 00:58:24;;;;;;;18.15;12.98;;;;;;;6.70;46.46;100731.36;1758025;80;21205;-60
2021/04/11 01:00:53;;;;;;;14.68;11.53;;;;;;;6.71;46.35;100735.19;1756908;80;21586;-59
2021/04/11 01:03:25;;;;;;;22.70;12.00;;;;;;;6.71;46.21;100728.50;1774360;80;21602;-59
2021/04/11 01:05:52;;;;;;;18.10;12.03;;;;;;;6.75;46.18;100732.42;1777812;80;21179;-61
2021/04/11 01:08:26;;;;;;;24.45;12.93;;;;;;;6.77;46.10;100731.69;1788453;80;21193;-61
2021/04/11 01:11:15;;;;;;;17.55;11.53;;;;;;;6.76;46.30;100738.59;1788405;80;20992;-61
2021/04/11 01:13:50;;;;;;;19.52;13.13;;;;;;;6.73;46.38;100736.30;1761364;80;21071;-61
2021/04/11 01:16:19;;;;;;;24.30;13.55;;;;;;;6.66;46.42;100742.98;1786726;80;21139;-63
2021/04/11 01:18:47;;;;;;;21.73;12.73;;;;;;;6.62;46.59;100740.90;1774243;80;21201;-62
2021/04/11 01:21:43;;;;;;;21.50;13.90;;;;;;;6.51;46.91;100733.75;1773632;80;21201;-63
2021/04/11 01:24:49;;;;;;;18.92;12.37;;;;;;;6.51;46.91;100733.75;1781875;80;21055;-64
2021/04/11 01:27:24;;;;;;;17.48;12.45;;;;;;;6.48;47.09;100731.96;1758526;80;21622;-67
2021/04/11 01:29:52;;;;;;;17.25;12.53;;;;;;;6.43;47.30;100729.05;1787502;78;21218;-63
2021/04/11 01:32:20;;;;;;;19.57;13.28;;;;;;;6.41;47.22;100723.92;1788074;80;21139;-62
2021/04/11 01:34:51;;;;;;;17.75;11.70;;;;;;;6.45;46.85;100729.70;1792579;80;21849;-61
2021/04/11 01:37:19;;;;;;;22.55;14.30;;;;;;;6.47;46.96;100733.84;1783376;80;21755;-61
2021/04/11 01:39:48;;;;;;;21.80;11.97;;;;;;;6.46;47.40;100736.70;1791904;80;21011;-60
2021/04/11 01:42:20;;;;;;;20.35;12.50;;;;;;;6.36;47.81;100735.72;1792287;79;21000;-63
2021/04/11 01:44:49;;;;;;;27.25;16.90;;;;;;;6.36;47.81;100735.72;1791315;79;21550;-63
2021/04/11 01:47:17;;;;;;;22.77;14.30;;;;;;;6.31;47.99;100734.66;1764782;80;21345;-61
2021/04/11 01:49:46;;;;;;;22.07;13.90;;;;;;;6.27;48.05;100736.07;1759047;80;21134;-63
2021/04/11 01:52:28;;;;;;;25.92;15.10;;;;;;;6.22;48.05;100740.66;1774345;80;21181;-62
2021/04/11 01:54:58;;;;;;;16.00;10.60;;;;;;;6.13;48.25;100744.00;1786199;80;21019;-62
2021/04/11 01:57:32;;;;;;;20.82;13.83;;;;;;;6.04;48.45;100747.81;1774417;80;21158;-62
2021/04/11 02:00:33;;;;;;;80.60;55.45;;;;;;;6.04;48.45;100747.81;1779080;79;21196;-62
2021/04/11 02:03:09;;;;;;;26.37;21.12;;;;;;;6.06;48.50;100747.62;1784937;80;21134;-62
2021/04/11 02:05:42;;;;;;;23.35;15.25;;;;;;;6.06;48.40;100744.95;1787731;80;21134;-63
2021/04/11 02:08:14;;;;;;;19.87;13.85;;;;;;;6.06;48.24;100742.29;1787938;80;21175;-62
2021/04/11 02:10:48;;;;;;;23.07;12.82;;;;;;;6.09;48.00;100749.39;1787883;80;21107;-62
2021/04/11 02:13:24;;;;;;;18.92;11.63;;;;;;;6.10;47.97;100743.55;1785688;80;21252;-62
2021/04/11 02:15:57;;;;;;;19.10;11.50;;;;;;;6.12;47.83;100750.86;1784084;80;37472;-62
2021/04/11 02:18:26;;;;;;;18.65;12.70;;;;;;;6.12;47.58;100750.36;1784422;80;21214;-61
2021/04/11 02:20:56;;;;;;;17.07;11.53;;;;;;;6.12;47.58;100750.36;1784880;80;21118;-61
2021/04/11 02:23:26;;;;;;;21.02;13.30;;;;;;;6.14;47.61;100756.31;1785391;80;21733;-60
2021/04/11 02:25:55;;;;;;;17.57;12.82;;;;;;;6.15;47.63;100759.81;1784601;80;21200;-63
2021/04/11 02:28:27;;;;;;;22.15;13.90;;;;;;;6.16;47.63;100756.63;1784512;80;21134;-63
2021/04/11 02:31:18;;;;;;;13.98;10.85;;;;;;;6.17;47.47;100764.46;1784504;80;21190;-61
2021/04/11 02:34:04;;;;;;;16.30;11.45;;;;;;;6.16;47.62;100764.14;1766352;80;21864;-64
2021/04/11 02:36:44;;;;;;;19.87;12.20;;;;;;;6.13;47.71;100769.37;1783687;80;21114;-62
2021/04/11 02:39:17;;;;;;;20.85;12.75;;;;;;;6.10;47.75;100768.41;1756448;80;21320;-62
2021/04/11 02:41:47;;;;;;;16.60;13.30;;;;;;;6.10;47.70;100765.74;1787828;80;21118;-61
2021/04/11 02:44:16;;;;;;;18.80;13.53;;;;;;;6.12;47.54;100768.23;1786715;80;21145;-62
2021/04/11 02:46:44;;;;;;;21.07;12.07;;;;;;;6.11;47.38;100772.73;1784460;80;21304;-62
2021/04/11 02:49:16;;;;;;;22.32;13.53;;;;;;;6.12;47.17;100769.05;1786682;80;21156;-61
2021/04/11 02:51:45;;;;;;;19.77;12.43;;;;;;;6.09;47.35;100778.77;1794000;80;21529;-63
2021/04/11 02:54:17;;;;;;;20.55;13.38;;;;;;;6.09;47.35;100778.77;1790353;80;21170;-64
2021/04/11 02:56:46;;;;;;;21.40;13.10;;;;;;;6.05;47.61;100785.52;1758339;80;21123;-62
2021/04/11 02:59:17;;;;;;;27.40;15.03;;;;;;;6.04;47.75;100783.06;1785648;79;21116;-62
2021/04/11 03:01:47;;;;;;;22.98;14.70;;;;;;;6.00;48.03;100787.13;1793943;80;21065;-61
2021/04/11 03:04:20;;;;;;;33.73;20.48;;;;;;;5.95;48.12;100792.20;1761567;80;21273;-60
2021/04/11 03:07:02;;;;;;;23.35;14.83;;;;;;;5.89;48.33;100797.01;1756564;80;21595;-62
2021/04/11 03:09:37;;;;;;;21.80;12.55;;;;;;;5.84;48.32;100795.39;1785054;80;21165;-61
2021/04/11 03:12:08;;;;;;;18.37;12.47;;;;;;;5.82;48.13;100794.73;1770185;81;21128;-61
2021/04/11 03:14:38;;;;;;;22.48;13.28;;;;;;;5.79;48.08;100797.80;1750489;79;21111;-61
2021/04/11 03:17:12;;;;;;;23.02;13.20;;;;;;;5.78;47.97;100794.81;1803564;79;21374;-62
2021/04/11 03:19:51;;;;;;;21.95;13.08;;;;;;;5.81;47.82;100803.77;1803714;79;21571;-63
2021/04/11 03:22:19;;;;;;;18.05;13.13;;;;;;;5.83;47.85;100809.75;1786176;79;21030;-64
2021/04/11 03:24:50;;;;;;;19.55;13.60;;;;;;;5.85;47.96;100814.40;1791056;80;21209;-61
2021/04/11 03:27:23;;;;;;;21.57;13.70;;;;;;;5.79;48.36;100821.83;1786099;80;21115;-63
2021/04/11 03:30:03;;;;;;;21.95;14.55;;;;;;;5.71;48.42;100824.93;1784753;80;21196;-63
2021/04/11 03:32:36;;;;;;;18.45;13.15;;;;;;;5.65;48.80;100823.05;1787236;80;21041;-62
2021/04/11 03:35:07;;;;;;;23.05;14.33;;;;;;;5.65;48.65;100824.88;1786848;80;21066;-63
2021/04/11 03:37:35;;;;;;;19.67;13.43;;;;;;;5.64;48.95;100825.89;1757637;80;21117;-63
2021/04/11 03:40:13;;;;;;;20.37;13.58;;;;;;;5.66;48.82;100830.52;1758260;80;21177;-63
2021/04/11 03:42:45;;;;;;;19.07;12.95;;;;;;;5.66;48.77;100834.52;1789583;79;22056;-62
2021/04/11 03:45:14;;;;;;;26.05;15.65;;;;;;;5.68;48.85;100836.50;1788431;80;21114;-62
2021/04/11 03:47:57;;;;;;;36.80;18.10;;;;;;;5.66;49.18;100842.52;1790211;80;21125;-64
2021/04/11 03:50:35;;;;;;;35.85;18.70;;;;;;;5.67;49.29;100844.19;1767226;80;21838;-63
2021/04/11 03:53:25;;;;;;;29.35;17.77;;;;;;;5.63;49.65;100849.08;1792364;80;21158;-61
2021/04/11 03:55:59;;;;;;;22.77;15.93;;;;;;;5.55;49.20;100859.88;1784516;80;22297;-61
2021/04/11 03:58:32;;;;;;;24.30;16.32;;;;;;;5.48;49.29;100862.97;1764812;80;21069;-61
2021/04/11 04:01:05;;;;;;;24.50;15.30;;;;;;;5.47;49.48;100865.31;1763561;80;22012;-61
2021/04/11 04:03:34;;;;;;;24.43;15.85;;;;;;;5.45;49.84;100866.53;1745603;81;21102;-63
2021/04/11 04:06:25;;;;;;;23.27;17.37;;;;;;;5.37;50.42;100871.45;1707382;84;21176;-61
2021/04/11 04:08:54;;;;;;;23.35;13.93;;;;;;;5.32;50.32;100873.88;1759185;80;21348;-62
2021/04/11 04:11:40;;;;;;;27.20;16.07;;;;;;;5.33;50.29;100882.17;1763631;81;21174;-61
2021/04/11 04:14:26;;;;;;;21.25;13.90;;;;;;;5.30;50.31;100881.23;1770449;81;21613;-62
2021/04/11 04:17:28;;;;;;;24.00;16.27;;;;;;;5.27;50.49;100880.28;1720941;81;21136;-62
2021/04/11 04:20:24;;;;;;;25.52;17.12;;;;;;;5.24;50.68;100882.80;1783589;79;21202;-63
2021/04/11 04:23:02;;;;;;;24.65;17.65;;;;;;;5.20;51.03;100880.69;1779731;78;21214;-65
2021/04/11 04:25:59;;;;;;;27.13;17.53;;;;;;;5.16;51.24;100886.08;1851713;77;22727;-61
2021/04/11 04:28:55;;;;;;;27.05;17.62;;;;;;;5.12;51.24;100888.80;1817955;78;21015;-61
2021/04/11 04:31:38;;;;;;;30.00;17.65;;;;;;;5.15;51.20;100892.41;1801158;78;21191;-62
2021/04/11 04:34:38;;;;;;;30.50;16.77;;;;;;;5.15;51.26;100890.58;1800619;78;21586;-63
2021/04/11 04:37:39;;;;;;;23.55;16.73;;;;;;;5.18;51.27;100894.20;1780292;80;20987;-61
2021/04/11 04:40:22;;;;;;;21.93;16.45;;;;;;;5.23;51.29;100895.80;1806218;78;21641;-62
2021/04/11 04:42:56;;;;;;;24.92;17.17;;;;;;;5.28;50.99;100898.74;1818733;78;21464;-61
2021/04/11 04:46:05;;;;;;;24.87;15.75;;;;;;;5.37;50.79;100895.45;1759985;78;21284;-63
2021/04/11 04:48:38;;;;;;;22.02;15.08;;;;;;;5.47;50.62;100902.66;1790901;78;21620;-62
2021/04/11 04:51:32;;;;;;;24.23;16.67;;;;;;;5.56;50.46;100898.88;1786975;79;21161;-62
2021/04/11 04:54:16;;;;;;;23.80;15.68;;;;;;;5.62;50.23;100902.13;1749361;81;21599;-61
2021/04/11 04:57:12;;;;;;;22.67;14.87;;;;;;;5.67;50.06;100905.57;1786946;80;21137;-62
2021/04/11 05:00:07;;;;;;;24.35;15.30;;;;;;;5.76;49.65;100911.11;1784363;78;22254;-62
2021/04/11 05:02:48;;;;;;;24.72;14.87;;;;;;;5.84;49.28;100913.69;1752725;80;21129;-61
2021/04/11 05:05:18;;;;;;;25.25;14.40;;;;;;;5.92;49.03;100912.76;1787381;79;20979;-63
2021/04/11 05:08:06;;;;;;;22.25;14.25;;;;;;;5.96;48.98;100912.70;1813692;79;21646;-63
2021/04/11 05:10:42;;;;;;;23.57;15.88;;;;;;;6.02;48.84;100922.63;1793961;78;21602;-63
2021/04/11 05:13:25;;;;;;;16.87;13.72;;;;;;;6.06;48.75;100910.54;1800035;78;21936;-65
2021/04/11 05:16:31;;;;;;;24.90;15.00;;;;;;;6.13;48.58;100914.95;1808511;79;21547;-63
2021/04/11 05:19:15;;;;;;;20.35;12.55;;;;;;;6.20;48.13;100924.34;1799953;78;21114;-68
2021/04/11 05:22:02;;;;;;;19.02;13.83;;;;;;;6.27;48.01;100923.91;1797837;78;21125;-67
2021/04/11 05:24:45;;;;;;;22.27;14.83;;;;;;;6.35;47.83;100924.27;1817897;78;21653;-65
2021/04/11 05:27:22;;;;;;;22.10;13.68;;;;;;;6.42;47.77;100921.16;1825156;78;21200;-65
2021/04/11 05:30:10;;;;;;;20.37;14.70;;;;;;;6.49;47.66;100920.69;1822299;78;21185;-64
2021/04/11 05:32:38;;;;;;;18.87;13.25;;;;;;;6.57;47.71;100921.87;1813980;78;21180;-63
2021/04/11 05:35:07;;;;;;;20.37;13.30;;;;;;;6.76;47.63;100921.74;1792238;80;21014;-64
2021/04/11 05:37:45;;;;;;;24.98;14.83;;;;;;;6.76;47.63;100921.74;1791880;80;21185;-63
2021/04/11 05:40:25;;;;;;;23.00;14.45;;;;;;;6.84;47.42;100924.26;1815544;78;21386;-62
2021/04/11 05:43:06;;;;;;;17.87;13.90;;;;;;;6.94;47.32;100928.75;1823005;78;21720;-63
2021/04/11 05:45:55;;;;;;;19.50;13.90;;;;;;;7.03;47.19;100926.74;1822954;78;21147;-64
2021/04/11 05:48:45;;;;;;;19.27;13.32;;;;;;;7.17;47.09;100923.95;1822710;78;21570;-65
2021/04/11 05:51:26;;;;;;;23.77;15.30;;;;;;;7.17;47.09;100923.95;1807751;78;21149;-63
2021/04/11 05:54:20;;;;;;;22.02;15.60;;;;;;;7.27;47.04;100926.27;1824367;78;22122;-65
2021/04/11 05:56:52;;;;;;;20.80;15.88;;;;;;;7.34;46.84;100927.94;1807005;78;21110;-65
2021/04/11 05:59:24;;;;;;;22.87;16.30;;;;;;;7.46;46.72;100928.22;1804214;78;21275;-64
2021/04/11 06:01:55;;;;;;;29.63;16.32;;;;;;;7.56;46.46;100933.20;1820181;78;21621;-64
2021/04/11 06:04:40;;;;;;;20.32;14.30;;;;;;;7.65;46.18;100927.98;1760325;80;21193;-64
2021/04/11 06:07:31;;;;;;;23.02;14.98;;;;;;;7.73;45.95;100933.15;1733139;82;21204;-64
2021/04/11 06:10:16;;;;;;;23.92;14.95;;;;;;;7.82;45.96;100931.44;1747504;81;21200;-64
2021/04/11 06:13:11;;;;;;;20.45;14.40;;;;;;;7.93;45.91;100937.23;1755467;81;21136;-63
2021/04/11 06:15:49;;;;;;;26.05;15.40;;;;;;;8.04;45.58;100939.33;1763673;81;24222;-65
2021/04/11 06:18:16;;;;;;;22.40;14.75;;;;;;;8.13;45.43;100937.61;1749766;81;21166;-63
2021/04/11 06:20:46;;;;;;;25.77;13.90;;;;;;;8.22;45.39;100940.40;1737555;81;21387;-65
2021/04/11 06:23:32;;;;;;;24.67;14.80;;;;;;;8.33;45.33;100937.67;1733322;82;21122;-64
2021/04/11 06:26:11;;;;;;;18.35;13.68;;;;;;;8.41;45.22;100933.44;1707054;82;21580;-63
2021/04/11 06:28:55;;;;;;;22.95;15.78;;;;;;;8.52;44.93;100929.33;1674497;84;21613;-66
2021/04/11 06:31:38;;;;;;;21.85;15.25;;;;;;;8.62;44.71;100934.59;1708369;82;21589;-64
2021/04/11 06:34:12;;;;;;;25.43;14.83;;;;;;;8.73;44.62;100942.00;1732316;82;22073;-63
2021/04/11 06:36:43;;;;;;;27.17;14.53;;;;;;;8.84;44.32;100937.04;1702401;83;21681;-65
2021/04/11 06:39:31;;;;;;;25.00;16.25;;;;;;;8.93;44.22;100937.13;1727968;82;21196;-64
2021/04/11 06:42:16;;;;;;;18.37;12.73;;;;;;;9.03;44.21;100941.56;1720951;83;21225;-63
2021/04/11 06:45:02;;;;;;;25.48;16.45;;;;;;;9.14;43.96;100940.93;1697508;83;21298;-63
2021/04/11 06:47:45;;;;;;;23.12;14.95;;;;;;;9.26;43.90;100946.45;1721244;82;21378;-63
2021/04/11 06:50:19;;;;;;;20.68;14.55;;;;;;;9.37;43.59;100944.48;1727052;82;22263;-64
2021/04/11 06:53:39;;;;;;;22.52;14.95;;;;;;;9.48;43.36;100945.17;1732841;82;21010;-64
2021/04/11 06:56:30;;;;;;;14.43;11.53;;;;;;;9.59;43.35;100948.00;1731359;82;21153;-64
2021/04/11 06:59:20;;;;;;;22.52;14.35;;;;;;;9.72;42.98;100948.49;1701854;84;21167;-62
2021/04/11 07:02:20;;;;;;;23.07;13.83;;;;;;;9.85;42.55;100955.14;1705593;82;21423;-64
2021/04/11 07:05:00;;;;;;;17.67;12.68;;;;;;;9.98;42.20;100954.23;1732822;82;21164;-63
2021/04/11 07:08:00;;;;;;;20.85;15.08;;;;;;;10.10;41.99;100951.70;1733010;82;21121;-64
2021/04/11 07:10:42;;;;;;;29.48;15.80;;;;;;;10.20;41.65;100959.64;1732721;82;21238;-64
2021/04/11 07:13:48;;;;;;;20.80;12.73;;;;;;;10.33;41.74;100963.58;1728304;82;21259;-65
2021/04/11 07:16:38;;;;;;;21.42;12.85;;;;;;;10.44;41.41;100962.07;1703595;84;21621;-63
2021/04/11 07:19:34;;;;;;;19.02;12.88;;;;;;;10.57;41.15;100957.11;1700671;82;21641;-66
2021/04/11 07:22:19;;;;;;;21.20;12.55;;;;;;;10.71;42.54;100964.03;1703359;84;21223;-61
2021/04/11 07:25:25;;;;;;;18.60;10.90;;;;;;;10.89;41.13;100962.73;1711085;81;21122;-64
2021/04/11 07:28:04;;;;;;;21.77;12.65;;;;;;;10.99;40.34;100959.02;1791218;78;21169;-62
2021/04/11 07:30:46;;;;;;;18.50;13.40;;;;;;;11.11;40.65;100963.98;1802401;78;21218;-62
2021/04/11 07:34:01;;;;;;;17.98;13.18;;;;;;;11.23;40.71;100969.45;1786388;80;21126;-66
2021/04/11 07:36:49;;;;;;;26.73;17.52;;;;;;;11.37;40.33;100962.87;1786328;79;21174;-63
2021/04/11 07:39:53;;;;;;;29.95;17.37;;;;;;;11.50;40.47;100959.23;1786162;78;21173;-67
2021/04/11 07:42:43;;;;;;;17.95;13.50;;;;;;;11.67;40.13;100959.73;1748247;82;21169;-66
2021/04/11 07:45:31;;;;;;;16.20;11.35;;;;;;;11.82;38.31;100962.59;1731587;80;21213;-63
2021/04/11 07:48:30;;;;;;;15.93;10.30;;;;;;;11.92;37.93;100954.27;1802263;78;21631;-67
2021/04/11 07:51:39;;;;;;;12.55;9.45;;;;;;;12.00;36.55;100957.99;1779728;80;21015;-62
2021/04/11 07:54:21;;;;;;;16.55;10.80;;;;;;;12.11;36.52;100963.97;1818496;78;21097;-65
2021/04/11 07:57:10;;;;;;;14.98;9.85;;;;;;;12.27;36.54;100963.86;1817966;78;21082;-65
2021/04/11 07:59:50;;;;;;;11.15;7.28;;;;;;;12.40;36.13;100965.53;1818573;78;21920;-64
2021/04/11 08:02:44;;;;;;;10.95;6.55;;;;;;;12.50;34.14;100969.31;1748878;80;21578;-63
2021/04/11 08:05:46;;;;;;;7.37;6.25;;;;;;;12.56;33.32;100967.58;1780103;80;21591;-66
2021/04/11 08:09:00;;;;;;;8.95;6.10;;;;;;;12.66;33.18;100969.98;1765296;78;20999;-65
2021/04/11 08:12:07;;;;;;;7.35;6.47;;;;;;;12.76;33.32;100957.81;1818429;78;21138;-65
2021/04/11 08:15:21;;;;;;;8.10;7.28;;;;;;;12.86;33.42;100956.16;1809456;78;21460;-68
2021/04/11 08:18:28;;;;;;;8.40;6.85;;;;;;;12.97;33.21;100961.27;1820407;78;21841;-65
2021/04/11 08:21:21;;;;;;;9.05;6.03;;;;;;;13.09;33.68;100954.80;1818359;78;21182;-66
2021/04/11 08:24:02;;;;;;;18.15;8.40;;;;;;;13.21;33.67;100960.25;1786221;80;21173;-68
2021/04/11 08:26:45;;;;;;;13.90;7.70;;;;;;;13.32;33.74;100960.78;1786079;78;21173;-69
2021/04/11 08:29:25;;;;;;;10.88;6.72;;;;;;;13.42;33.27;100963.70;1760317;78;21058;-63
2021/04/11 08:32:40;;;;;;;11.57;6.40;;;;;;;13.49;32.45;100955.45;1795282;78;21039;-66
2021/04/11 08:35:52;;;;;;;9.50;5.47;;;;;;;13.56;32.45;100958.86;1804546;79;21594;-62
2021/04/11 08:38:31;;;;;;;10.28;6.17;;;;;;;13.69;31.96;100955.87;1774319;80;21758;-66
2021/04/11 08:41:28;;;;;;;8.15;5.90;;;;;;;13.81;31.23;100949.09;1786267;80;21154;-65
2021/04/11 08:44:16;;;;;;;12.93;7.12;;;;;;;13.90;31.54;100947.66;1779108;78;21469;-63
2021/04/11 08:47:12;;;;;;;11.30;6.62;;;;;;;14.00;30.78;100952.44;1745296;82;21573;-64
2021/04/11 08:50:02;;;;;;;9.68;6.47;;;;;;;14.01;30.84;100945.41;1818407;78;21039;-63
2021/04/11 08:53:12;;;;;;;7.28;5.95;;;;;;;14.08;30.97;100941.22;1817351;78;21212;-65
2021/04/11 08:56:13;;;;;;;10.70;7.67;;;;;;;14.18;30.77;100937.35;1817236;78;21133;-66
2021/04/11 08:59:22;;;;;;;12.80;7.47;;;;;;;14.30;30.33;100936.22;1781263;80;21267;-65
2021/04/11 09:02:17;;;;;;;11.60;9.25;;;;;;;14.34;30.11;100941.42;1748702;82;21609;-64
2021/04/11 09:05:01;;;;;;;12.63;7.90;;;;;;;14.43;29.71;100934.31;1797517;78;21572;-65
2021/04/11 09:07:43;;;;;;;;;;;;;;;14.48;29.49;100924.92;1802486;78;21626;-65
2021/04/11 09:10:23;;;;;;;10.68;6.17;;;;;;;14.55;29.34;100927.74;1752893;79;20224;-67
2021/04/11 09:13:24;;;;;;;7.08;6.05;;;;;;;14.62;29.43;100924.35;1818152;78;21365;-66
2021/04/11 09:16:37;;;;;;;15.50;7.40;;;;;;;14.71;29.05;100917.98;1818410;78;21194;-66
2021/04/11 09:19:41;;;;;;;7.37;6.47;;;;;;;14.71;29.33;100910.69;1817977;78;21674;-66
2021/04/11 09:22:34;;;;;;;9.28;6.95;;;;;;;14.73;29.30;100912.59;1800140;78;21121;-64
2021/04/11 09:25:31;;;;;;;7.67;6.42;;;;;;;14.80;29.58;100898.89;1790761;78;21582;-65
2021/04/11 09:28:33;;;;;;;7.80;6.28;;;;;;;14.93;29.19;100895.01;1781629;79;21392;-66
2021/04/11 09:31:15;;;;;;;6.85;6.25;;;;;;;15.01;28.76;100902.17;1786685;79;21170;-66
2021/04/11 09:34:12;;;;;;;10.38;6.50;;;;;;;15.08;28.42;100903.36;1776604;79;21570;-68
2021/04/11 09:37:20;;;;;;;12.60;6.58;;;;;;;15.18;27.86;100903.50;1774829;79;21134;-67
2021/04/11 09:40:14;;;;;;;10.50;7.12;;;;;;;15.23;28.26;100895.44;1789427;79;21619;-64
2021/04/11 09:43:12;;;;;;;11.93;7.72;;;;;;;15.28;27.53;100896.33;1776404;80;22262;-63
2021/04/11 09:46:07;;;;;;;12.40;6.67;;;;;;;15.33;27.44;100898.82;1789518;79;21661;-63
2021/04/11 09:49:04;;;;;;;13.83;6.75;;;;;;;15.28;27.36;100899.05;1783762;79;21583;-62
2021/04/11 09:52:12;;;;;;;11.50;6.75;;;;;;;15.28;27.67;100890.09;1726689;82;21186;-62
2021/04/11 09:54:49;;;;;;;10.35;7.75;;;;;;;15.31;28.12;100895.53;1658090;81;21283;-63
2021/04/11 09:57:43;;;;;;;9.68;7.65;;;;;;;15.38;28.02;100885.33;1734189;81;21373;-66
2021/04/11 10:00:49;;;;;;;11.93;8.08;;;;;;;15.40;27.86;100888.06;1747021;81;21533;-64
2021/04/11 10:03:58;;;;;;;10.63;7.90;;;;;;;15.42;27.87;100889.17;1734046;81;21209;-63
2021/04/11 10:07:09;;;;;;;13.22;8.53;;;;;;;15.48;28.39;100890.35;1734354;81;21117;-63
2021/04/11 10:10:17;;;;;;;16.02;9.23;;;;;;;15.59;28.42;100879.91;1720791;83;21109;-65
2021/04/11 10:13:19;;;;;;;12.58;8.40;;;;;;;15.75;28.08;100890.95;1752936;81;21357;-63
2021/04/11 10:16:15;;;;;;;12.98;8.33;;;;;;;15.78;27.43;100888.53;1740003;81;21185;-62
2021/04/11 10:19:09;;;;;;;12.20;9.18;;;;;;;15.75;27.41;100884.16;1718729;82;21189;-63
2021/04/11 10:21:51;;;;;;;12.37;8.18;;;;;;;15.74;27.71;100879.27;1756351;81;20988;-65
2021/04/11 10:24:33;;;;;;;10.88;9.38;;;;;;;15.82;27.78;100878.02;1757012;81;21581;-61
2021/04/11 10:27:24;;;;;;;14.45;8.38;;;;;;;15.92;28.19;100875.41;1714090;81;21214;-61
2021/04/11 10:29:52;;;;;;;14.07;8.50;;;;;;;16.06;27.92;100876.10;1728376;82;21520;-63
2021/04/11 10:32:57;;;;;;;10.48;8.83;;;;;;;16.21;27.11;100878.67;1716473;82;21680;-61
2021/04/11 10:35:39;;;;;;;14.45;8.95;;;;;;;16.24;27.13;100882.22;1715761;82;21150;-65
2021/04/11 10:38:15;;;;;;;11.38;8.68;;;;;;;16.24;26.76;100877.61;1703700;84;21625;-63
2021/04/11 10:41:33;;;;;;;9.80;8.03;;;;;;;16.21;26.98;100878.11;1700437;84;21372;-64
2021/04/11 10:44:39;;;;;;;11.50;8.35;;;;;;;16.20;26.92;100875.67;1703138;84;21033;-64
2021/04/11 10:47:36;;;;;;;10.53;7.55;;;;;;;16.29;26.38;100875.48;1738542;82;21003;-63
2021/04/11 10:50:28;;;;;;;11.78;7.28;;;;;;;16.35;25.93;100864.41;1703537;84;21208;-63
2021/04/11 10:53:27;;;;;;;11.35;9.45;;;;;;;16.56;25.86;100858.04;1888963;76;22673;-64
2021/04/11 10:56:14;;;;;;;9.10;7.55;;;;;;;16.60;25.23;100859.72;1867446;75;21519;-64
2021/04/11 10:59:09;;;;;;;8.43;7.42;;;;;;;16.63;25.60;100861.94;1847528;77;22118;-65
2021/04/11 11:01:57;;;;;;;11.85;8.08;;;;;;;16.76;25.39;100864.19;1859818;77;21618;-63
2021/04/11 11:04:45;;;;;;;9.93;7.72;;;;;;;16.96;25.03;100860.78;1859459;77;21034;-66
2021/04/11 11:07:51;;;;;;;13.32;7.65;;;;;;;17.00;24.84;100851.01;1842463;75;21609;-64
2021/04/11 11:10:51;;;;;;;15.35;10.72;;;;;;;17.04;24.93;100857.55;1826135;78;20998;-63
2021/04/11 11:13:54;;;;;;;14.23;8.98;;;;;;;16.94;25.11;100858.85;1848801;77;21197;-61
2021/04/11 11:17:07;;;;;;;11.63;8.75;;;;;;;16.86;25.24;100846.59;1834100;75;20999;-62
2021/04/11 11:19:51;;;;;;;19.87;9.75;;;;;;;16.90;25.14;100842.80;1844380;75;20999;-66
2021/04/11 11:23:01;;;;;;;12.30;9.15;;;;;;;16.88;25.43;100834.90;1844852;75;21594;-64
2021/04/11 11:26:07;;;;;;;14.07;9.28;;;;;;;16.84;25.62;100829.72;1846492;75;22191;-64
2021/04/11 11:29:01;;;;;;;11.43;8.35;;;;;;;16.93;25.11;100835.47;1842264;77;21370;-64
2021/04/11 11:32:01;;;;;;;17.48;9.13;;;;;;;16.99;25.06;100828.98;1790053;78;21209;-64
2021/04/11 11:34:54;;;;;;;10.93;8.00;;;;;;;17.16;25.32;100823.37;1772437;78;21166;-65
2021/04/11 11:37:59;;;;;;;11.88;8.55;;;;;;;17.34;24.18;100818.27;1796038;78;21018;-66
2021/04/11 11:40:33;;;;;;;13.55;9.88;;;;;;;17.57;24.21;100812.88;1825608;78;21164;-67
2021/04/11 11:43:12;;;;;;;13.10;10.08;;;;;;;17.76;23.42;100813.22;1812853;78;22110;-68
2021/04/11 11:46:23;;;;;;;11.73;9.50;;;;;;;17.83;23.15;100811.07;1773280;80;21569;-65
2021/04/11 11:49:17;;;;;;;10.15;7.85;;;;;;;17.94;23.08;100809.19;1773183;80;21161;-70
2021/04/11 11:52:08;;;;;;;12.37;8.85;;;;;;;17.96;22.59;100812.44;1773130;78;21198;-67
2021/04/11 11:54:43;;;;;;;13.22;9.18;;;;;;;17.80;22.35;100806.97;1751881;80;21610;-70
2021/04/11 11:57:28;;;;;;;9.68;8.40;;;;;;;17.65;22.97;100800.14;1786631;80;21397;-68
2021/04/11 12:00:13;;;;;;;16.67;9.40;;;;;;;17.65;23.61;100802.86;1766597;81;21240;-66
2021/04/11 12:03:07;;;;;;;12.70;9.73;;;;;;;17.82;23.40;100801.27;1766855;81;21152;-73
2021/04/11 12:06:19;;;;;;;12.00;9.03;;;;;;;17.85;23.21;100796.63;1764034;79;21263;-68
2021/04/11 12:09:03;;;;;;;11.53;9.75;;;;;;;17.82;23.54;100793.10;1769775;81;21621;-69
2021/04/11 12:11:39;;;;;;;13.38;10.48;;;;;;;17.99;23.64;100795.55;1769062;81;22213;-70
2021/04/11 12:14:35;;;;;;;13.00;9.88;;;;;;;18.13;23.19;100791.22;1766360;79;21214;-72
2021/04/11 12:17:17;;;;;;;19.10;11.70;;;;;;;18.16;23.31;100781.95;1772009;79;21160;-70
2021/04/11 12:19:59;;;;;;;20.82;11.20;;;;;;;18.19;22.94;100783.30;1720778;81;21216;-68
2021/04/11 12:22:44;;;;;;;10.90;9.00;;;;;;;18.18;23.07;100773.48;1729447;81;21163;-66
2021/04/11 12:25:27;;;;;;;20.82;10.08;;;;;;;18.22;23.19;100771.30;1766750;81;21385;-67
2021/04/11 12:27:55;;;;;;;21.62;9.63;;;;;;;18.29;22.66;100765.59;1738665;81;21189;-68
2021/04/11 12:30:35;;;;;;;17.75;9.33;;;;;;;18.35;22.54;100767.77;1765547;80;21035;-69
2021/04/11 12:33:31;;;;;;;11.45;8.15;;;;;;;18.45;22.05;100767.20;1781471;80;21157;-68
2021/04/11 12:36:11;;;;;;;15.05;10.10;;;;;;;18.52;22.67;100765.54;1727029;81;21218;-67